Terminal Aerodrome Forecast
Issued by NWS Shreveport, LA

Home | Current Version | Previous Version | Text Only | Print | Product List | Glossary On
Versions: 1 2 3 4 5 6 7 8 9 10 11 12 13 14 15 16 17
036
FTUS44 KSHV 220520
TAFGGG
TAF
KGGG 220520Z 2206/2306 26015G25KT P6SM VCSH SCT025 BKN080 BKN250
      TEMPO 2206/2210 5SM -SHRA BR BKN050
     FM221200 24012G18KT P6SM SCT080 SCT250
     FM221600 28015G25KT P6SM SCT100 SCT250
     FM221800 30018G28KT P6SM SCT030 SCT250
     FM230000 31015G25KT P6SM SCT035=

USA.gov is the U.S. government's official web portal to all federal, state and local government web resources and services.